createdAt,value
2017-03-03T08:04:55.793Z,1010.26
2017-03-03T08:05:57.374Z,1010.21
2017-03-03T08:06:58.089Z,1010.26
2017-03-03T08:07:58.870Z,1010.28
2017-03-03T08:08:59.590Z,1010.28
2017-03-03T08:10:00.303Z,1010.27
2017-03-03T08:11:01.099Z,1010.26
2017-03-03T08:12:01.841Z,1010.24
2017-03-03T08:13:02.549Z,1010.22
2017-03-03T08:14:03.265Z,1010.21
2017-03-03T08:15:04.004Z,1010.24
2017-03-03T08:16:04.750Z,1010.2
2017-03-03T08:17:05.454Z,1010.22
2017-03-03T08:18:06.206Z,1010.2
2017-03-03T08:19:06.916Z,1010.22
2017-03-03T08:20:07.627Z,1010.19
2017-03-03T08:21:08.340Z,1010.22
2017-03-03T08:22:09.037Z,1010.22
2017-03-03T08:23:09.795Z,1010.23
2017-03-03T08:24:10.523Z,1010.24
2017-03-03T08:25:11.247Z,1010.28
2017-03-03T08:26:12.013Z,1010.22
2017-03-03T08:27:12.766Z,1010.27
2017-03-03T08:28:13.531Z,1010.3
2017-03-03T08:29:14.260Z,1010.29
2017-03-03T08:30:14.976Z,1010.27
2017-03-03T08:31:15.787Z,1010.32
2017-03-03T08:32:16.516Z,1010.32
2017-03-03T08:33:17.233Z,1010.37
2017-03-03T08:34:18.103Z,1010.36
2017-03-03T08:35:18.818Z,1010.38
2017-03-03T08:36:19.572Z,1010.36
2017-03-03T08:37:20.262Z,1010.32
2017-03-03T08:38:21.012Z,1010.31
2017-03-03T08:39:21.753Z,1010.32
2017-03-03T08:40:22.537Z,1010.3
2017-03-03T08:41:23.248Z,1010.3
2017-03-03T08:42:24.120Z,1010.3
2017-03-03T08:43:26.179Z,1010.28
2017-03-03T08:44:29.322Z,1010.3
2017-03-03T08:45:32.508Z,1010.33
2017-03-03T08:46:33.398Z,1010.33
2017-03-03T08:47:34.145Z,1010.32
2017-03-03T08:48:34.889Z,1010.31
2017-03-03T08:49:35.730Z,1010.31
2017-03-03T08:50:36.553Z,1010.33
2017-03-03T08:51:37.397Z,1010.32
2017-03-03T08:52:38.239Z,1010.37
2017-03-03T08:53:38.987Z,1010.36
2017-03-03T08:54:39.745Z,1010.3
2017-03-03T08:55:40.502Z,1010.29
2017-03-03T08:56:41.244Z,1010.3
2017-03-03T08:57:41.971Z,1010.32
2017-03-03T08:58:42.730Z,1010.33
2017-03-03T08:59:43.472Z,1010.32
2017-03-03T09:00:44.205Z,1010.32
2017-03-03T09:01:44.961Z,1010.35
2017-03-03T09:02:45.721Z,1010.28
2017-03-03T09:03:46.508Z,1010.33
2017-03-03T09:04:47.247Z,1010.32
2017-03-03T09:05:47.972Z,1010.41
2017-03-03T09:06:48.727Z,1010.36
2017-03-03T09:07:49.476Z,1010.37
2017-03-03T09:08:50.199Z,1010.38
2017-03-03T09:09:50.947Z,1010.38
2017-03-03T09:10:51.693Z,1010.39
2017-03-03T09:11:52.410Z,1010.37
2017-03-03T09:12:53.153Z,1010.38
2017-03-03T09:13:53.860Z,1010.34
2017-03-03T09:14:54.653Z,1010.35
2017-03-03T09:15:55.348Z,1010.37
2017-03-03T09:16:56.092Z,1010.4
2017-03-03T09:17:56.814Z,1010.39
2017-03-03T09:18:57.557Z,1010.42
2017-03-03T09:19:58.281Z,1010.43
2017-03-03T09:20:59.004Z,1010.41
2017-03-03T09:21:59.721Z,1010.39
2017-03-03T09:23:00.464Z,1010.42
2017-03-03T09:24:01.192Z,1010.41
2017-03-03T09:25:01.931Z,1010.38
2017-03-03T09:26:02.672Z,1010.39
2017-03-03T09:27:03.414Z,1010.36
2017-03-03T09:28:04.144Z,1010.35
2017-03-03T09:29:04.872Z,1010.36
2017-03-03T09:30:05.588Z,1010.35
2017-03-03T09:31:06.307Z,1010.3
2017-03-03T09:32:07.032Z,1010.33
2017-03-03T09:33:07.799Z,1010.35
2017-03-03T09:34:08.526Z,1010.3
2017-03-03T09:35:09.262Z,1010.31
2017-03-03T09:36:09.989Z,1010.26
2017-03-03T09:37:10.716Z,1010.28
2017-03-03T09:38:11.440Z,1010.29
2017-03-03T09:39:12.155Z,1010.32
2017-03-03T09:40:12.880Z,1010.32
2017-03-03T09:41:13.621Z,1010.33
2017-03-03T09:42:14.376Z,1010.28
2017-03-03T09:43:15.119Z,1010.27
2017-03-03T09:44:15.885Z,1010.23
2017-03-03T09:45:16.598Z,1010.24
2017-03-03T09:46:17.392Z,1010.2
2017-03-03T09:47:18.117Z,1010.14
2017-03-03T09:48:18.858Z,1010.15
2017-03-03T09:49:19.603Z,1010.09
2017-03-03T09:50:20.324Z,1010.03
2017-03-03T09:51:22.013Z,1010.04
2017-03-03T09:52:22.724Z,1010.06
2017-03-03T09:53:23.442Z,1010.02
2017-03-03T09:54:24.180Z,1010.07
2017-03-03T09:55:24.940Z,1010.1
2017-03-03T09:56:25.684Z,1010.18
2017-03-03T09:57:26.410Z,1010.23
2017-03-03T09:58:27.142Z,1010.17
2017-03-03T09:59:28.051Z,1010.21
2017-03-03T10:00:28.791Z,1010.19
2017-03-03T10:01:29.511Z,1010.16
2017-03-03T10:02:30.251Z,1010.09
2017-03-03T10:03:31.027Z,1010.04
2017-03-03T10:04:31.823Z,1009.97
2017-03-03T10:05:32.544Z,1009.9
2017-03-03T10:06:33.296Z,1009.84
2017-03-03T10:07:34.040Z,1009.84
2017-03-03T10:08:34.770Z,1009.83
2017-03-03T10:09:35.494Z,1009.88
2017-03-03T10:10:36.229Z,1009.91
2017-03-03T10:11:36.958Z,1009.87
2017-03-03T10:12:37.670Z,1009.83
2017-03-03T10:13:38.396Z,1009.89
2017-03-03T10:14:39.140Z,1009.94
2017-03-03T10:15:39.869Z,1009.96
2017-03-03T10:16:40.658Z,1010.01
2017-03-03T10:17:41.391Z,1010.01
2017-03-03T10:18:42.117Z,1009.96
2017-03-03T10:19:42.881Z,1010.06
2017-03-03T10:20:43.613Z,1010.02
2017-03-03T10:21:44.349Z,1010
2017-03-03T10:22:45.108Z,1009.93
2017-03-03T10:23:45.850Z,1009.92
2017-03-03T10:24:46.595Z,1009.91
2017-03-03T10:25:47.337Z,1009.9
2017-03-03T10:26:48.079Z,1009.87
2017-03-03T10:27:48.832Z,1009.91
2017-03-03T10:28:49.581Z,1009.85
2017-03-03T10:29:50.343Z,1009.85
2017-03-03T10:30:51.079Z,1009.88
2017-03-03T10:31:51.862Z,1009.87
2017-03-03T10:32:52.665Z,1009.92
2017-03-03T10:33:53.429Z,1009.87
2017-03-03T10:34:54.165Z,1009.89
2017-03-03T10:35:54.874Z,1009.83
2017-03-03T10:36:55.596Z,1009.82
2017-03-03T10:37:56.307Z,1009.84
2017-03-03T10:38:57.069Z,1009.8
2017-03-03T10:39:57.815Z,1009.82
2017-03-03T10:40:58.523Z,1009.85
2017-03-03T10:41:59.247Z,1009.81
2017-03-03T10:43:00.016Z,1009.82
2017-03-03T10:44:00.759Z,1009.8
2017-03-03T10:45:01.492Z,1009.77
2017-03-03T10:46:02.242Z,1009.77
2017-03-03T10:47:03.025Z,1009.8
2017-03-03T10:48:03.756Z,1009.75
2017-03-03T10:49:04.479Z,1009.74
2017-03-03T10:50:05.232Z,1009.78
2017-03-03T10:51:05.974Z,1009.71
2017-03-03T10:52:06.746Z,1009.74
2017-03-03T10:53:07.471Z,1009.71
2017-03-03T10:54:08.260Z,1009.72
2017-03-03T10:55:08.978Z,1009.7
2017-03-03T10:56:09.698Z,1009.71
2017-03-03T10:57:10.443Z,1009.68
2017-03-03T10:58:11.247Z,1009.66
2017-03-03T10:59:11.966Z,1009.62
2017-03-03T11:00:12.688Z,1009.68
2017-03-03T11:01:13.420Z,1009.67
2017-03-03T11:02:14.153Z,1009.61
2017-03-03T11:03:14.886Z,1009.55
2017-03-03T11:04:15.643Z,1009.57
2017-03-03T11:05:16.389Z,1009.58
2017-03-03T11:06:17.143Z,1009.57
2017-03-03T11:07:17.865Z,1009.54
2017-03-03T11:08:18.606Z,1009.53
2017-03-03T11:09:19.337Z,1009.5
2017-03-03T11:10:20.078Z,1009.47
2017-03-03T11:11:20.805Z,1009.47
2017-03-03T11:12:21.558Z,1009.41
2017-03-03T11:13:22.326Z,1009.43
2017-03-03T11:14:23.037Z,1009.36
2017-03-03T11:15:23.766Z,1009.31
2017-03-03T11:16:24.491Z,1009.36
2017-03-03T11:17:25.221Z,1009.35
2017-03-03T11:18:25.958Z,1009.37
2017-03-03T11:19:26.684Z,1009.38
2017-03-03T11:20:27.413Z,1009.34
2017-03-03T11:21:28.139Z,1009.34
2017-03-03T11:22:28.914Z,1009.31
2017-03-03T11:23:29.638Z,1009.29
2017-03-03T11:24:30.356Z,1009.27
2017-03-03T11:25:31.058Z,1009.3
2017-03-03T11:26:31.784Z,1009.25
2017-03-03T11:27:32.527Z,1009.23
2017-03-03T11:28:33.249Z,1009.23
2017-03-03T11:29:33.977Z,1009.21
2017-03-03T11:30:34.718Z,1009.18
2017-03-03T11:31:35.451Z,1009.21
2017-03-03T11:32:36.197Z,1009.17
2017-03-03T11:33:36.921Z,1009.09
2017-03-03T11:34:37.641Z,1009.06
2017-03-03T11:35:38.344Z,1009.02
2017-03-03T11:36:39.090Z,1008.98
2017-03-03T11:37:39.828Z,1008.92
2017-03-03T11:38:40.561Z,1008.92
2017-03-03T11:39:41.358Z,1008.96
2017-03-03T11:40:42.140Z,1008.88
2017-03-03T11:41:42.868Z,1008.86
2017-03-03T11:42:43.604Z,1008.86
2017-03-03T11:43:44.320Z,1008.87
2017-03-03T11:44:45.058Z,1008.83
2017-03-03T11:45:45.792Z,1008.82
2017-03-03T11:46:46.523Z,1008.78
2017-03-03T11:47:47.219Z,1008.76
2017-03-03T11:48:47.942Z,1008.77
2017-03-03T11:49:48.653Z,1008.72
2017-03-03T11:50:49.385Z,1008.7
2017-03-03T11:51:50.086Z,1008.66
2017-03-03T11:52:50.809Z,1008.61
2017-03-03T11:53:51.525Z,1008.63
2017-03-03T11:54:52.276Z,1008.62
2017-03-03T11:55:53.031Z,1008.56
2017-03-03T11:56:53.778Z,1008.5
2017-03-03T11:57:54.530Z,1008.53
2017-03-03T11:58:55.252Z,1008.53
2017-03-03T11:59:55.968Z,1008.53
2017-03-03T12:00:56.705Z,1008.51
2017-03-03T12:01:57.432Z,1008.45
2017-03-03T12:02:58.206Z,1008.44
2017-03-03T12:03:58.938Z,1008.38
2017-03-03T12:04:59.670Z,1008.35
2017-03-03T12:06:00.386Z,1008.4
2017-03-03T12:07:01.148Z,1008.4
2017-03-03T12:08:01.905Z,1008.37
2017-03-03T12:09:02.628Z,1008.37
2017-03-03T12:10:03.372Z,1008.32
2017-03-03T12:11:04.081Z,1008.3
2017-03-03T12:12:04.825Z,1008.34
2017-03-03T12:13:05.542Z,1008.3
2017-03-03T12:14:06.271Z,1008.27
2017-03-03T12:15:07.007Z,1008.23
2017-03-03T12:16:07.759Z,1008.24
2017-03-03T12:17:08.476Z,1008.23
2017-03-03T12:18:09.208Z,1008.2
2017-03-03T12:19:09.936Z,1008.18
2017-03-03T12:20:10.649Z,1008.21
2017-03-03T12:21:11.362Z,1008.14
2017-03-03T12:22:12.092Z,1008.07
2017-03-03T12:23:12.812Z,1008.1
2017-03-03T12:24:13.533Z,1008.06
2017-03-03T12:25:14.260Z,1008.07
2017-03-03T12:26:15.028Z,1008.05
2017-03-03T12:27:15.731Z,1008.06
2017-03-03T12:28:16.480Z,1008.08
2017-03-03T12:29:17.193Z,1008
2017-03-03T12:30:17.911Z,1008.04
2017-03-03T12:31:18.658Z,1007.93
2017-03-03T12:32:19.370Z,1007.95
2017-03-03T12:33:20.109Z,1007.9
2017-03-03T12:34:20.834Z,1007.89
2017-03-03T12:35:21.586Z,1007.84
2017-03-03T12:36:22.346Z,1007.86
2017-03-03T12:37:23.082Z,1007.81
2017-03-03T12:38:23.794Z,1007.83
2017-03-03T12:39:24.507Z,1007.83
2017-03-03T12:40:25.226Z,1007.87
2017-03-03T12:41:25.954Z,1007.83
2017-03-03T12:42:26.675Z,1007.84
2017-03-03T12:43:27.413Z,1007.79
2017-03-03T12:44:28.187Z,1007.82
2017-03-03T12:45:28.883Z,1007.74
2017-03-03T12:46:29.607Z,1007.73
2017-03-03T12:47:30.339Z,1007.65
2017-03-03T12:48:31.053Z,1007.69
2017-03-03T12:49:31.749Z,1007.66
2017-03-03T12:50:32.469Z,1007.65
2017-03-03T12:51:33.177Z,1007.66
2017-03-03T12:52:33.883Z,1007.69
2017-03-03T12:53:34.641Z,1007.65
2017-03-03T12:54:35.349Z,1007.63
2017-03-03T12:55:36.102Z,1007.59
2017-03-03T12:56:36.842Z,1007.6
2017-03-03T12:57:37.563Z,1007.64
2017-03-03T12:58:38.300Z,1007.58
2017-03-03T12:59:39.031Z,1007.54
2017-03-03T13:00:39.785Z,1007.54
2017-03-03T13:01:40.540Z,1007.53
2017-03-03T13:02:41.292Z,1007.56
2017-03-03T13:03:42.029Z,1007.57
2017-03-03T13:04:42.755Z,1007.56
2017-03-03T13:05:43.503Z,1007.54
2017-03-03T13:06:44.257Z,1007.55
2017-03-03T13:07:44.981Z,1007.54
2017-03-03T13:08:45.749Z,1007.59
2017-03-03T13:09:46.486Z,1007.56
2017-03-03T13:10:47.240Z,1007.54
2017-03-03T13:11:47.965Z,1007.56
2017-03-03T13:12:48.676Z,1007.48
2017-03-03T13:13:49.411Z,1007.47
2017-03-03T13:14:50.143Z,1007.43
2017-03-03T13:15:50.904Z,1007.4
2017-03-03T13:16:51.632Z,1007.4
2017-03-03T13:17:52.365Z,1007.36
2017-03-03T13:18:53.106Z,1007.38
2017-03-03T13:19:53.855Z,1007.33
2017-03-03T13:20:54.598Z,1007.32
2017-03-03T13:21:55.318Z,1007.35
2017-03-03T13:22:56.050Z,1007.34
2017-03-03T13:23:56.795Z,1007.28
2017-03-03T13:24:57.519Z,1007.24
2017-03-03T13:25:58.352Z,1007.22
2017-03-03T13:26:59.073Z,1007.2
2017-03-03T13:27:59.802Z,1007.22
2017-03-03T13:29:00.524Z,1007.25
2017-03-03T13:30:01.263Z,1007.19
2017-03-03T13:31:02.000Z,1007.17
2017-03-03T13:32:02.706Z,1007.2
2017-03-03T13:33:03.407Z,1007.17
2017-03-03T13:34:04.192Z,1007.14
2017-03-03T13:35:04.921Z,1007.12
2017-03-03T13:36:05.613Z,1007.08
2017-03-03T13:37:06.332Z,1007.13
2017-03-03T13:38:07.089Z,1007.13
2017-03-03T13:39:07.793Z,1007.13
2017-03-03T13:40:08.560Z,1007.12
2017-03-03T13:41:09.342Z,1007.12
2017-03-03T13:42:10.077Z,1007.14
2017-03-03T13:43:10.796Z,1007.1
2017-03-03T13:44:11.511Z,1007.1
2017-03-03T13:45:12.278Z,1007.07
2017-03-03T13:46:13.121Z,1007.04
2017-03-03T13:47:13.864Z,1007.04
2017-03-03T13:48:14.647Z,1006.99
2017-03-03T13:49:15.393Z,1006.99
2017-03-03T13:50:16.122Z,1007
2017-03-03T13:51:16.856Z,1006.96
2017-03-03T13:52:17.590Z,1006.95
2017-03-03T13:53:18.351Z,1006.97
2017-03-03T13:54:19.107Z,1006.94
2017-03-03T13:55:19.842Z,1006.9
2017-03-03T13:56:20.616Z,1006.92
2017-03-03T13:57:21.360Z,1006.86
2017-03-03T13:58:22.096Z,1006.83
2017-03-03T13:59:22.816Z,1006.81
2017-03-03T14:00:25.178Z,1006.78
2017-03-03T14:01:26.663Z,1006.76
2017-03-03T14:02:27.649Z,1006.76
2017-03-03T14:03:28.405Z,1006.75
2017-03-03T14:04:29.167Z,1006.7
2017-03-03T14:05:30.053Z,1006.72
2017-03-03T14:06:31.244Z,1006.68
2017-03-03T14:07:32.056Z,1006.65
2017-03-03T14:08:32.783Z,1006.61
2017-03-03T14:09:34.511Z,1006.69
2017-03-03T14:10:37.685Z,1006.68
2017-03-03T14:11:40.787Z,1006.66
2017-03-03T14:12:43.628Z,1006.67
2017-03-03T14:13:44.362Z,1006.65
2017-03-03T14:14:45.090Z,1006.65
2017-03-03T14:15:45.836Z,1006.69
2017-03-03T14:16:46.638Z,1006.68
2017-03-03T14:17:47.301Z,1006.71
2017-03-03T14:18:48.022Z,1006.66
2017-03-03T14:19:48.757Z,1006.68
2017-03-03T14:20:49.506Z,1006.64
2017-03-03T14:21:50.250Z,1006.67
2017-03-03T14:22:51.008Z,1006.66
2017-03-03T14:23:51.767Z,1006.62
2017-03-03T14:24:52.521Z,1006.6
2017-03-03T14:25:53.256Z,1006.63
2017-03-03T14:26:54.000Z,1006.59
2017-03-03T14:27:54.741Z,1006.6
2017-03-03T14:28:55.468Z,1006.6
2017-03-03T14:29:56.201Z,1006.61
2017-03-03T14:30:56.920Z,1006.58
2017-03-03T14:31:57.641Z,1006.54
2017-03-03T14:32:58.392Z,1006.54
2017-03-03T14:33:59.163Z,1006.49
2017-03-03T14:34:59.886Z,1006.47
2017-03-03T14:36:00.625Z,1006.44
2017-03-03T14:37:01.358Z,1006.45
2017-03-03T14:38:02.075Z,1006.4
2017-03-03T14:39:02.812Z,1006.42
2017-03-03T14:40:03.536Z,1006.37
2017-03-03T14:41:04.265Z,1006.37
2017-03-03T14:42:04.972Z,1006.32
2017-03-03T14:43:05.724Z,1006.31
2017-03-03T14:44:06.458Z,1006.3
2017-03-03T14:45:07.182Z,1006.29
2017-03-03T14:46:07.913Z,1006.28
2017-03-03T14:47:08.646Z,1006.24
2017-03-03T14:48:09.380Z,1006.22
2017-03-03T14:49:10.116Z,1006.22
2017-03-03T14:50:10.875Z,1006.23
2017-03-03T14:51:11.643Z,1006.22
2017-03-03T14:52:12.369Z,1006.21
2017-03-03T14:53:13.113Z,1006.16
2017-03-03T14:54:13.836Z,1006.21
2017-03-03T14:55:14.557Z,1006.12
2017-03-03T14:56:15.307Z,1006.15
2017-03-03T14:57:16.023Z,1006.16
2017-03-03T14:58:16.776Z,1006.14
2017-03-03T14:59:17.489Z,1006.16
2017-03-03T15:00:18.203Z,1006.1
2017-03-03T15:01:18.924Z,1006.06
2017-03-03T15:02:19.653Z,1006.06
2017-03-03T15:03:20.379Z,1005.99
2017-03-03T15:04:21.132Z,1006.01
2017-03-03T15:05:21.876Z,1005.99
2017-03-03T15:06:22.654Z,1006.02
2017-03-03T15:07:23.446Z,1006.02
2017-03-03T15:08:24.543Z,1005.96
2017-03-03T15:09:25.471Z,1006.01
2017-03-03T15:10:26.204Z,1006.04
2017-03-03T15:11:26.935Z,1006.01
2017-03-03T15:12:28.471Z,1005.96
2017-03-03T15:13:29.205Z,1005.95
2017-03-03T15:14:30.393Z,1005.89
2017-03-03T15:15:31.534Z,1005.85
2017-03-03T15:16:32.244Z,1005.91
2017-03-03T15:17:33.687Z,1005.84
2017-03-03T15:18:34.867Z,1005.84
2017-03-03T15:19:35.593Z,1005.86
2017-03-03T15:20:36.346Z,1005.81
2017-03-03T15:21:37.093Z,1005.8
2017-03-03T15:22:37.802Z,1005.79
2017-03-03T15:23:39.187Z,1005.8
2017-03-03T15:24:40.278Z,1005.8
2017-03-03T15:25:41.010Z,1005.74
2017-03-03T15:26:41.758Z,1005.79
2017-03-03T15:27:42.506Z,1005.72
2017-03-03T15:28:43.274Z,1005.71
2017-03-03T15:29:43.996Z,1005.75
2017-03-03T15:30:44.709Z,1005.72
2017-03-03T15:31:45.433Z,1005.73
2017-03-03T15:32:46.170Z,1005.69
2017-03-03T15:33:47.152Z,1005.7
2017-03-03T15:34:48.118Z,1005.68
2017-03-03T15:35:48.854Z,1005.69
2017-03-03T15:36:49.749Z,1005.68
2017-03-03T15:37:50.487Z,1005.68
2017-03-03T15:38:51.227Z,1005.69
2017-03-03T15:39:51.967Z,1005.67
2017-03-03T15:40:53.202Z,1005.7
2017-03-03T15:41:53.946Z,1005.66
2017-03-03T15:42:54.688Z,1005.66
2017-03-03T15:43:55.412Z,1005.64
2017-03-03T15:44:56.141Z,1005.63
2017-03-03T15:45:56.889Z,1005.62
2017-03-03T15:46:57.643Z,1005.63
2017-03-03T15:47:58.366Z,1005.58
2017-03-03T15:48:59.117Z,1005.58
2017-03-03T15:49:59.850Z,1005.59
2017-03-03T15:51:00.587Z,1005.54
2017-03-03T15:52:01.336Z,1005.51
2017-03-03T15:53:02.080Z,1005.52
2017-03-03T15:54:02.856Z,1005.52
2017-03-03T15:55:03.576Z,1005.47
2017-03-03T15:56:04.348Z,1005.45
2017-03-03T15:57:05.087Z,1005.45
2017-03-03T15:58:05.962Z,1005.45
2017-03-03T15:59:07.001Z,1005.47
2017-03-03T16:00:08.452Z,1005.48
2017-03-03T16:01:09.555Z,1005.4
2017-03-03T16:02:10.925Z,1005.41
2017-03-03T16:03:12.385Z,1005.4
2017-03-03T16:04:13.431Z,1005.42
2017-03-03T16:05:14.346Z,1005.4
2017-03-03T16:06:15.384Z,1005.41
2017-03-03T16:07:16.190Z,1005.37
2017-03-03T16:08:16.989Z,1005.35
2017-03-03T16:09:18.134Z,1005.36
2017-03-03T16:10:19.045Z,1005.32
2017-03-03T16:11:19.795Z,1005.32
2017-03-03T16:12:20.836Z,1005.31
2017-03-03T16:13:21.568Z,1005.28
2017-03-03T16:14:22.320Z,1005.3
2017-03-03T16:15:23.625Z,1005.31
2017-03-03T16:16:24.612Z,1005.28
2017-03-03T16:17:25.413Z,1005.31
2017-03-03T16:18:26.467Z,1005.28
2017-03-03T16:19:28.429Z,1005.25
2017-03-03T16:20:29.276Z,1005.27
2017-03-03T16:21:30.027Z,1005.24
2017-03-03T16:22:30.773Z,1005.22
2017-03-03T16:23:31.527Z,1005.2
2017-03-03T16:24:32.259Z,1005.24
2017-03-03T16:25:32.993Z,1005.21
2017-03-03T16:26:33.739Z,1005.25
2017-03-03T16:27:34.498Z,1005.19
2017-03-03T16:28:35.229Z,1005.1
2017-03-03T16:29:35.971Z,1005.17
2017-03-03T16:30:36.695Z,1005.15
2017-03-03T16:31:37.448Z,1005.15
2017-03-03T16:32:38.182Z,1005.11
2017-03-03T16:33:39.096Z,1005.12
2017-03-03T16:34:39.835Z,1005.13
2017-03-03T16:35:40.577Z,1005.11
2017-03-03T16:36:41.372Z,1005.1
2017-03-03T16:37:42.130Z,1005.09
2017-03-03T16:38:43.094Z,1005.08
2017-03-03T16:39:44.199Z,1005.07
2017-03-03T16:40:44.955Z,1005.04
2017-03-03T16:41:45.741Z,1004.98
2017-03-03T16:42:46.495Z,1004.97
2017-03-03T16:43:47.255Z,1004.96
2017-03-03T16:44:47.997Z,1004.98
2017-03-03T16:45:48.764Z,1004.94
2017-03-03T16:46:49.477Z,1004.94
2017-03-03T16:47:50.256Z,1004.9
2017-03-03T16:48:51.030Z,1004.89
2017-03-03T16:49:51.773Z,1004.85
2017-03-03T16:50:52.524Z,1004.83
2017-03-03T16:51:53.376Z,1004.83
2017-03-03T16:52:54.213Z,1004.82
2017-03-03T16:53:54.932Z,1004.81
2017-03-03T16:54:55.708Z,1004.82
2017-03-03T16:55:56.497Z,1004.8
2017-03-03T16:56:57.245Z,1004.76
2017-03-03T16:57:58.070Z,1004.74
2017-03-03T16:58:58.818Z,1004.68
2017-03-03T16:59:59.534Z,1004.68
2017-03-03T17:01:00.277Z,1004.69
2017-03-03T17:02:01.006Z,1004.7
2017-03-03T17:03:01.768Z,1004.66
2017-03-03T17:04:02.548Z,1004.63
2017-03-03T17:05:03.367Z,1004.64
2017-03-03T17:06:04.172Z,1004.58
2017-03-03T17:07:04.929Z,1004.55
2017-03-03T17:08:05.673Z,1004.52
2017-03-03T17:09:06.394Z,1004.47
2017-03-03T17:10:07.129Z,1004.43
2017-03-03T17:11:07.856Z,1004.41
2017-03-03T17:12:08.609Z,1004.36
2017-03-03T17:13:09.345Z,1004.39
2017-03-03T17:14:10.071Z,1004.36
2017-03-03T17:15:10.825Z,1004.34
2017-03-03T17:16:11.565Z,1004.37
2017-03-03T17:17:12.282Z,1004.39
2017-03-03T17:18:13.056Z,1004.42
2017-03-03T17:19:13.801Z,1004.42
2017-03-03T17:20:14.581Z,1004.41
2017-03-03T17:21:15.331Z,1004.41
2017-03-03T17:22:16.071Z,1004.39
2017-03-03T17:23:16.795Z,1004.37
2017-03-03T17:24:17.581Z,1004.33
2017-03-03T17:25:18.316Z,1004.36
2017-03-03T17:26:19.039Z,1004.3
2017-03-03T17:27:19.788Z,1004.33
2017-03-03T17:28:20.548Z,1004.34
2017-03-03T17:29:21.278Z,1004.41
2017-03-03T17:30:22.041Z,1004.39
2017-03-03T17:31:22.784Z,1004.39
2017-03-03T17:32:23.524Z,1004.39
2017-03-03T17:33:24.297Z,1004.39
2017-03-03T17:34:25.021Z,1004.41
2017-03-03T17:35:25.754Z,1004.38
2017-03-03T17:36:26.474Z,1004.41
2017-03-03T17:37:27.202Z,1004.39
2017-03-03T17:38:27.935Z,1004.36
2017-03-03T17:39:28.693Z,1004.35
2017-03-03T17:40:29.782Z,1004.39
2017-03-03T17:41:30.517Z,1004.33
2017-03-03T17:42:31.251Z,1004.38
2017-03-03T17:43:31.982Z,1004.35
2017-03-03T17:44:32.713Z,1004.37
2017-03-03T17:45:33.461Z,1004.36
2017-03-03T17:46:34.172Z,1004.36
2017-03-03T17:47:34.926Z,1004.35
2017-03-03T17:48:35.658Z,1004.33
2017-03-03T17:49:36.427Z,1004.3
2017-03-03T17:50:37.226Z,1004.3
2017-03-03T17:51:37.888Z,1004.32
2017-03-03T17:52:38.613Z,1004.34
2017-03-03T17:53:39.365Z,1004.37
2017-03-03T17:54:40.123Z,1004.35
2017-03-03T17:55:40.848Z,1004.28
2017-03-03T17:56:41.578Z,1004.29
2017-03-03T17:57:42.315Z,1004.29
2017-03-03T17:58:43.063Z,1004.31
2017-03-03T17:59:43.930Z,1004.33
2017-03-03T18:00:45.991Z,1004.36
2017-03-03T18:01:47.278Z,1004.34
2017-03-03T18:02:48.008Z,1004.33
2017-03-03T18:03:48.725Z,1004.29
2017-03-03T18:04:49.447Z,1004.31
2017-03-03T18:05:50.202Z,1004.27
2017-03-03T18:06:50.928Z,1004.25
2017-03-03T18:07:51.656Z,1004.23
2017-03-03T18:08:52.416Z,1004.15
2017-03-03T18:09:53.169Z,1004.1
2017-03-03T18:10:53.923Z,1004.07
2017-03-03T18:11:54.636Z,1004.03
2017-03-03T18:12:55.385Z,1004.05
2017-03-03T18:13:56.099Z,1004.07
2017-03-03T18:14:57.045Z,1004.02
2017-03-03T18:15:57.769Z,1003.99
2017-03-03T18:16:58.492Z,1003.99
2017-03-03T18:17:59.213Z,1003.94
2017-03-03T18:18:59.994Z,1003.93
2017-03-03T18:20:00.717Z,1003.9
2017-03-03T18:21:01.446Z,1003.84
2017-03-03T18:22:02.288Z,1003.84
2017-03-03T18:23:03.023Z,1003.8
2017-03-03T18:24:03.734Z,1003.79
2017-03-03T18:25:04.454Z,1003.8
2017-03-03T18:26:05.209Z,1003.8
2017-03-03T18:27:05.951Z,1003.76
2017-03-03T18:28:06.674Z,1003.76
2017-03-03T18:29:07.438Z,1003.76
2017-03-03T18:30:08.230Z,1003.77
2017-03-03T18:31:08.986Z,1003.74
2017-03-03T18:32:09.726Z,1003.76
2017-03-03T18:33:10.452Z,1003.75
2017-03-03T18:34:11.209Z,1003.72
2017-03-03T18:35:11.933Z,1003.68
2017-03-03T18:36:12.668Z,1003.69
2017-03-03T18:37:13.396Z,1003.68
2017-03-03T18:38:14.139Z,1003.66
2017-03-03T18:39:14.867Z,1003.67
2017-03-03T18:40:15.587Z,1003.62
2017-03-03T18:41:16.433Z,1003.57
2017-03-03T18:42:17.303Z,1003.61
2017-03-03T18:43:18.030Z,1003.56
2017-03-03T18:44:18.766Z,1003.48
2017-03-03T18:45:19.495Z,1003.46
2017-03-03T18:46:20.216Z,1003.45
2017-03-03T18:47:20.933Z,1003.44
2017-03-03T18:48:21.659Z,1003.41
2017-03-03T18:49:22.375Z,1003.34
2017-03-03T18:50:23.171Z,1003.31
2017-03-03T18:51:23.895Z,1003.3
2017-03-03T18:52:24.667Z,1003.23
2017-03-03T18:53:25.415Z,1003.21
2017-03-03T18:54:26.137Z,1003.16
2017-03-03T18:55:26.857Z,1003.15
2017-03-03T18:56:27.613Z,1003.12
2017-03-03T18:57:28.338Z,1003.14
2017-03-03T18:58:29.098Z,1003.09
2017-03-03T18:59:29.856Z,1003.07
2017-03-03T19:00:30.616Z,1003.02
2017-03-03T19:01:31.367Z,1003.01
2017-03-03T19:02:32.102Z,1002.98
2017-03-03T19:03:33.460Z,1002.98
2017-03-03T19:04:34.186Z,1002.92
2017-03-03T19:05:35.073Z,1002.86
2017-03-03T19:06:36.360Z,1002.86
2017-03-03T19:07:37.768Z,1002.82
2017-03-03T19:08:39.606Z,1002.82
2017-03-03T19:09:41.807Z,1002.81
2017-03-03T19:10:42.711Z,1002.83
2017-03-03T19:11:43.553Z,1002.79
2017-03-03T19:12:44.334Z,1002.78
2017-03-03T19:13:45.388Z,1002.71
2017-03-03T19:14:46.437Z,1002.77
2017-03-03T19:15:47.147Z,1002.73
2017-03-03T19:16:48.447Z,1002.76
2017-03-03T19:17:49.615Z,1002.74
2017-03-03T19:18:50.338Z,1002.76
2017-03-03T19:19:51.164Z,1002.84
2017-03-03T19:20:51.954Z,1002.77
2017-03-03T19:21:53.094Z,1002.75
2017-03-03T19:22:54.029Z,1002.76
2017-03-03T19:23:56.030Z,1002.74
2017-03-03T19:24:58.546Z,1002.68
2017-03-03T19:25:59.303Z,1002.66
2017-03-03T19:27:00.411Z,1002.64
2017-03-03T19:28:01.311Z,1002.56
2017-03-03T19:29:02.431Z,1002.53
2017-03-03T19:30:03.202Z,1002.55
2017-03-03T19:31:04.175Z,1002.58
2017-03-03T19:32:05.541Z,1002.59
2017-03-03T19:33:06.262Z,1002.62
2017-03-03T19:34:07.497Z,1002.67
2017-03-03T19:35:08.732Z,1002.58
2017-03-03T19:36:09.532Z,1002.62
2017-03-03T19:37:10.629Z,1002.6
2017-03-03T19:38:11.451Z,1002.53
2017-03-03T19:39:12.215Z,1002.48
2017-03-03T19:40:13.276Z,1002.52
2017-03-03T19:41:14.027Z,1002.52
2017-03-03T19:42:15.766Z,1002.5
2017-03-03T19:43:16.935Z,1002.56
2017-03-03T19:44:17.687Z,1002.54
2017-03-03T19:45:18.459Z,1002.53
2017-03-03T19:46:19.219Z,1002.49
2017-03-03T19:47:19.979Z,1002.41
2017-03-03T19:48:20.771Z,1002.46
2017-03-03T19:49:21.604Z,1002.45
2017-03-03T19:50:22.493Z,1002.41
2017-03-03T19:51:23.241Z,1002.4
2017-03-03T19:52:24.385Z,1002.39
2017-03-03T19:53:25.181Z,1002.35
2017-03-03T19:54:25.908Z,1002.29
2017-03-03T19:55:26.688Z,1002.3
2017-03-03T19:56:27.584Z,1002.32
2017-03-03T19:57:28.329Z,1002.36
2017-03-03T19:58:29.182Z,1002.36
2017-03-03T19:59:29.921Z,1002.31
2017-03-03T20:00:30.965Z,1002.34
2017-03-03T20:01:32.089Z,1002.29
2017-03-03T20:02:33.095Z,1002.29
2017-03-03T20:03:33.841Z,1002.31
2017-03-03T20:04:34.591Z,1002.34
2017-03-03T20:05:35.343Z,1002.33
2017-03-03T20:06:36.282Z,1002.31
2017-03-03T20:07:37.342Z,1002.27
2017-03-03T20:08:38.513Z,1002.24
2017-03-03T20:09:39.561Z,1002.22
2017-03-03T20:10:40.902Z,1002.21
2017-03-03T20:11:41.635Z,1002.16
2017-03-03T20:12:42.792Z,1002.14
2017-03-03T20:13:43.573Z,1002.1
2017-03-03T20:14:44.278Z,1002.06
2017-03-03T20:15:45.026Z,1002.02
2017-03-03T20:16:45.903Z,1002.03
2017-03-03T20:17:46.718Z,1002.02
2017-03-03T20:18:47.450Z,1002.01
2017-03-03T20:19:48.210Z,1001.99
2017-03-03T20:20:49.262Z,1002.05
2017-03-03T20:21:50.620Z,1002.03
2017-03-03T20:22:51.428Z,1002.02